createdAt,value
2018-02-08T00:01:25.747Z,35.20
2018-02-08T00:03:54.010Z,36.40
2018-02-08T00:06:22.270Z,36.75
2018-02-08T00:08:51.960Z,34.25
2018-02-08T00:11:20.194Z,38.75
2018-02-08T00:13:48.454Z,36.13
2018-02-08T00:16:16.707Z,34.67
2018-02-08T00:18:45.736Z,34.42
2018-02-08T00:21:13.991Z,35.22
2018-02-08T00:23:42.253Z,36.65
2018-02-08T00:26:11.277Z,38.97
2018-02-08T00:28:39.544Z,39.55
2018-02-08T00:31:07.801Z,38.00
2018-02-08T00:33:36.826Z,36.35
2018-02-08T00:36:05.099Z,37.90
2018-02-08T00:38:33.349Z,38.22
2018-02-08T00:41:01.613Z,38.70
2018-02-08T00:43:30.641Z,38.10
2018-02-08T00:45:58.905Z,38.25
2018-02-08T00:48:27.156Z,37.47
2018-02-08T00:50:56.191Z,35.53
2018-02-08T00:53:24.441Z,38.30
2018-02-08T00:55:52.745Z,38.97
2018-02-08T00:58:20.998Z,35.25
2018-02-08T01:00:49.249Z,39.50
2018-02-08T01:03:18.274Z,38.08
2018-02-08T01:05:46.534Z,39.75
2018-02-08T01:08:15.565Z,39.33
2018-02-08T01:10:43.822Z,39.50
2018-02-08T01:13:12.081Z,38.30
2018-02-08T01:15:40.341Z,39.65
2018-02-08T01:18:09.371Z,38.70
2018-02-08T01:20:37.627Z,38.17
2018-02-08T01:23:05.884Z,41.05
2018-02-08T01:25:34.910Z,37.83
2018-02-08T01:28:03.169Z,39.88
2018-02-08T01:30:31.427Z,37.30
2018-02-08T01:33:00.459Z,41.20
2018-02-08T01:35:28.715Z,39.08
2018-02-08T01:37:56.974Z,38.83
2018-02-08T01:40:25.995Z,37.90
2018-02-08T01:42:54.258Z,38.33
2018-02-08T01:45:23.283Z,39.10
2018-02-08T01:47:51.538Z,38.00
2018-02-08T01:50:19.790Z,37.10
2018-02-08T01:52:48.823Z,38.10
2018-02-08T01:55:17.070Z,35.60
2018-02-08T01:57:45.333Z,35.30
2018-02-08T02:00:14.346Z,39.85
2018-02-08T02:02:42.606Z,37.15
2018-02-08T02:05:11.622Z,36.25
2018-02-08T02:07:39.882Z,39.55
2018-02-08T02:10:08.906Z,37.25
2018-02-08T02:12:37.159Z,36.15
2018-02-08T02:15:05.410Z,38.33
2018-02-08T02:17:34.437Z,40.15
2018-02-08T02:20:02.684Z,38.92
2018-02-08T02:22:31.706Z,40.78
2018-02-08T02:24:59.962Z,36.75
2018-02-08T02:27:28.217Z,35.58
2018-02-08T02:29:56.479Z,41.08
2018-02-08T02:32:24.731Z,38.25
2018-02-08T02:34:52.992Z,38.78
2018-02-08T02:37:21.254Z,36.50
2018-02-08T02:39:49.517Z,36.67
2018-02-08T02:42:18.539Z,38.95
2018-02-08T02:44:46.795Z,39.03
2018-02-08T02:47:15.048Z,33.25
2018-02-08T02:49:44.074Z,35.85
2018-02-08T02:52:12.329Z,36.92
2018-02-08T02:54:41.356Z,37.03
2018-02-08T02:57:09.614Z,39.97
2018-02-08T02:59:37.861Z,36.63
2018-02-08T03:02:06.894Z,34.22
2018-02-08T03:04:35.155Z,38.80
2018-02-08T03:07:03.417Z,39.88
2018-02-08T03:09:32.439Z,36.05
2018-02-08T03:12:00.695Z,39.55
2018-02-08T03:14:28.953Z,40.97
2018-02-08T03:16:57.987Z,42.33
2018-02-08T03:19:26.239Z,39.65
2018-02-08T03:21:54.499Z,37.97
2018-02-08T03:24:23.515Z,39.28
2018-02-08T03:26:51.770Z,39.03
2018-02-08T03:29:20.787Z,36.85
2018-02-08T03:31:49.054Z,39.38
2018-02-08T03:34:17.307Z,38.95
2018-02-08T03:36:46.335Z,40.12
2018-02-08T03:39:14.597Z,39.53
2018-02-08T03:41:42.853Z,42.10
2018-02-08T03:44:11.879Z,40.05
2018-02-08T03:46:40.142Z,44.10
2018-02-08T03:49:08.404Z,40.60
2018-02-08T03:51:37.430Z,41.42
2018-02-08T03:54:05.678Z,44.22
2018-02-08T03:56:34.691Z,40.35
2018-02-08T03:59:02.942Z,39.75
2018-02-08T04:01:31.961Z,41.20
2018-02-08T04:04:00.222Z,39.88
2018-02-08T04:06:28.469Z,41.05
2018-02-08T04:08:57.495Z,39.55
2018-02-08T04:11:25.746Z,40.55
2018-02-08T04:13:54.785Z,41.97
2018-02-08T04:16:23.038Z,45.12
2018-02-08T04:18:51.969Z,43.33
2018-02-08T04:21:20.231Z,42.38
2018-02-08T04:23:48.490Z,44.13
2018-02-08T04:26:16.737Z,44.58
2018-02-08T04:28:45.762Z,41.13
2018-02-08T04:31:14.015Z,39.35
2018-02-08T04:33:43.039Z,41.40
2018-02-08T04:36:11.291Z,40.55
2018-02-08T04:38:57.314Z,41.47
2018-02-08T04:41:43.265Z,42.22
2018-02-08T04:47:34.797Z,40.17
2018-02-08T04:50:03.819Z,39.08
2018-02-08T04:52:32.066Z,42.47
2018-02-08T04:55:01.094Z,41.05
2018-02-08T04:57:29.346Z,43.10
2018-02-08T04:59:57.603Z,40.58
2018-02-08T05:02:26.626Z,37.38
2018-02-08T05:04:54.888Z,37.58
2018-02-08T05:07:23.147Z,36.03
2018-02-08T05:09:52.186Z,35.40
2018-02-08T05:12:20.425Z,38.00
2018-02-08T05:14:49.450Z,35.33
2018-02-08T05:17:17.702Z,34.38
2018-02-08T05:19:45.962Z,36.42
2018-02-08T05:22:14.977Z,37.50
2018-02-08T05:24:43.247Z,35.17
2018-02-08T05:27:12.259Z,36.85
2018-02-08T05:29:40.551Z,35.55
2018-02-08T05:32:08.797Z,38.17
2018-02-08T05:34:37.055Z,37.92
2018-02-08T05:37:06.086Z,35.10
2018-02-08T05:39:34.333Z,34.95
2018-02-08T05:42:02.602Z,33.08
2018-02-08T05:44:31.625Z,35.45
2018-02-08T05:46:59.895Z,35.25
2018-02-08T05:49:28.154Z,36.03
2018-02-08T05:51:57.179Z,34.92
2018-02-08T05:54:25.429Z,35.35
2018-02-08T05:56:53.703Z,36.42
2018-02-08T05:59:22.718Z,37.88
2018-02-08T06:01:50.974Z,37.97
2018-02-08T06:04:19.226Z,37.55
2018-02-08T06:06:48.249Z,38.90
2018-02-08T06:09:16.501Z,38.28
2018-02-08T06:11:45.530Z,38.33
2018-02-08T06:14:13.782Z,38.35
2018-02-08T06:16:42.810Z,35.45
2018-02-08T06:19:11.066Z,37.95
2018-02-08T06:21:39.325Z,39.05
2018-02-08T06:24:08.343Z,35.85
2018-02-08T06:26:36.608Z,36.88
2018-02-08T06:29:04.864Z,36.95
2018-02-08T06:31:33.895Z,37.70
2018-02-08T06:34:02.146Z,38.38
2018-02-08T06:36:30.416Z,41.30
2018-02-08T06:38:59.428Z,43.22
2018-02-08T06:41:27.689Z,39.70
2018-02-08T06:43:55.942Z,38.53
2018-02-08T06:46:24.966Z,44.45
2018-02-08T06:48:53.221Z,37.60
2018-02-08T06:51:22.243Z,41.90
2018-02-08T06:53:50.526Z,38.35
2018-02-08T06:56:18.810Z,46.25
2018-02-08T06:58:47.081Z,41.05
2018-02-08T07:01:15.386Z,42.83
2018-02-08T07:03:43.662Z,41.50
2018-02-08T07:06:11.922Z,42.35
2018-02-08T07:08:40.181Z,41.63
2018-02-08T07:11:08.455Z,39.60
2018-02-08T07:13:36.755Z,40.17
2018-02-08T07:16:05.045Z,45.50
2018-02-08T07:18:33.329Z,41.03
2018-02-08T07:21:01.602Z,42.83
2018-02-08T07:23:29.897Z,41.50
2018-02-08T07:25:58.945Z,42.95
2018-02-08T07:28:27.204Z,43.80
2018-02-08T07:30:55.505Z,40.70
2018-02-08T07:33:23.835Z,38.65
2018-02-08T07:35:52.882Z,39.95
2018-02-08T07:38:21.175Z,44.38
2018-02-08T07:40:49.441Z,42.38
2018-02-08T07:43:17.848Z,39.00
2018-02-08T07:45:46.924Z,39.35
2018-02-08T07:48:15.303Z,41.00
2018-02-08T07:50:43.628Z,37.95
2018-02-08T07:53:11.996Z,37.45
2018-02-08T07:55:40.306Z,36.35
2018-02-08T07:58:08.601Z,38.75
2018-02-08T08:00:36.949Z,41.15
2018-02-08T08:03:05.277Z,33.60
2018-02-08T08:05:34.373Z,32.47
2018-02-08T08:08:03.457Z,34.92
2018-02-08T08:10:31.781Z,32.40
2018-02-08T08:13:00.081Z,33.05
2018-02-08T08:15:28.447Z,35.95
2018-02-08T08:17:56.776Z,33.20
2018-02-08T08:20:25.894Z,30.10
2018-02-08T08:22:54.258Z,29.77
2018-02-08T08:25:23.366Z,29.95
2018-02-08T08:27:51.747Z,29.85
2018-02-08T08:30:20.155Z,30.00
2018-02-08T08:32:48.503Z,30.20
2018-02-08T08:35:16.932Z,31.65
2018-02-08T08:37:45.348Z,31.85
2018-02-08T08:40:14.512Z,31.23
2018-02-08T08:42:44.399Z,33.13
2018-02-08T08:45:12.844Z,32.70
2018-02-08T08:47:42.004Z,31.25
2018-02-08T08:50:10.392Z,32.00
2018-02-08T08:52:38.809Z,35.55
2018-02-08T08:55:07.191Z,34.00
2018-02-08T08:57:35.502Z,33.45
2018-02-08T09:00:03.823Z,33.78
2018-02-08T09:02:32.954Z,34.50
2018-02-08T09:05:01.332Z,35.05
2018-02-08T09:07:29.659Z,34.53
2018-02-08T09:09:58.767Z,32.85
2018-02-08T09:12:27.939Z,34.15
2018-02-08T09:14:56.279Z,35.90
2018-02-08T09:17:24.641Z,34.75
2018-02-08T09:19:52.984Z,35.53
2018-02-08T09:22:22.128Z,34.47
2018-02-08T09:24:50.492Z,32.67
2018-02-08T09:27:18.865Z,33.50
2018-02-08T09:29:47.234Z,36.60
2018-02-08T09:32:15.577Z,32.20
2018-02-08T09:34:43.900Z,34.28
2018-02-08T09:37:12.276Z,32.97
2018-02-08T09:39:40.648Z,36.67
2018-02-08T09:42:09.011Z,34.90
2018-02-08T09:44:38.206Z,38.00
2018-02-08T09:47:07.412Z,33.88
2018-02-08T09:49:35.789Z,35.90
2018-02-08T09:52:04.932Z,33.17
2018-02-08T09:54:33.252Z,35.10
2018-02-08T09:57:02.452Z,35.70
2018-02-08T09:59:30.814Z,36.27
2018-02-08T10:01:59.199Z,36.37
2018-02-08T10:04:28.793Z,36.33
2018-02-08T10:06:57.147Z,36.95
2018-02-08T10:09:25.553Z,37.00
2018-02-08T10:11:53.945Z,38.67
2018-02-08T10:14:23.122Z,37.00
2018-02-08T10:16:51.521Z,38.55
2018-02-08T10:19:20.728Z,39.00
2018-02-08T10:21:49.836Z,39.72
2018-02-08T10:24:18.233Z,41.25
2018-02-08T10:26:46.615Z,38.00
2018-02-08T10:29:14.953Z,38.80
2018-02-08T10:31:44.065Z,39.33
2018-02-08T10:34:12.414Z,35.83
2018-02-08T10:36:40.813Z,37.80
2018-02-08T10:39:09.961Z,38.42
2018-02-08T10:41:38.398Z,36.88
2018-02-08T10:44:06.868Z,35.40
2018-02-08T10:46:36.046Z,38.45
2018-02-08T10:49:04.491Z,38.00
2018-02-08T10:51:32.961Z,36.80
2018-02-08T10:54:01.271Z,41.85
2018-02-08T10:56:29.673Z,37.25
2018-02-08T10:58:58.775Z,35.70
2018-02-08T11:01:27.969Z,34.28
2018-02-08T11:03:56.320Z,34.70
2018-02-08T11:06:24.662Z,37.75
2018-02-08T11:08:52.987Z,32.90
2018-02-08T11:11:22.106Z,37.20
2018-02-08T11:13:51.241Z,35.50
2018-02-08T11:16:19.628Z,37.20
2018-02-08T11:18:47.984Z,39.27
2018-02-08T11:21:16.360Z,40.03
2018-02-08T11:23:44.764Z,37.30
2018-02-08T11:26:13.158Z,42.27
2018-02-08T11:28:41.580Z,40.47
2018-02-08T11:31:10.796Z,39.87
2018-02-08T11:33:39.146Z,38.10
2018-02-08T11:36:08.226Z,43.87
2018-02-08T11:38:36.663Z,42.43
2018-02-08T11:41:05.078Z,39.73
2018-02-08T11:43:33.548Z,43.17
2018-02-08T11:46:02.157Z,42.83
2018-02-08T11:48:30.579Z,44.73
2018-02-08T11:50:58.995Z,44.90
2018-02-08T11:53:27.377Z,47.80
2018-02-08T11:55:55.732Z,46.73
2018-02-08T11:58:24.153Z,45.60
2018-02-08T12:00:52.555Z,46.53
2018-02-08T12:03:20.984Z,45.50
2018-02-08T12:05:49.388Z,51.53
2018-02-08T12:08:17.766Z,44.30
2018-02-08T12:10:46.214Z,48.40
2018-02-08T12:13:14.679Z,47.63
2018-02-08T12:15:43.052Z,51.10
2018-02-08T12:18:11.468Z,49.90
2018-02-08T12:20:39.826Z,50.07
2018-02-08T12:23:08.148Z,45.03
2018-02-08T12:25:36.578Z,50.67
2018-02-08T12:28:04.871Z,43.30
2018-02-08T12:30:33.227Z,45.83
2018-02-08T12:33:01.547Z,42.10
2018-02-08T12:35:29.903Z,43.20
2018-02-08T12:37:58.290Z,43.83
2018-02-08T12:40:26.598Z,40.47
2018-02-08T12:42:55.763Z,39.40
2018-02-08T12:45:24.167Z,41.03
2018-02-08T12:47:53.356Z,38.33
2018-02-08T12:50:22.491Z,39.57
2018-02-08T12:52:50.821Z,40.10
2018-02-08T12:55:19.933Z,36.33
2018-02-08T12:57:49.056Z,38.77
2018-02-08T13:00:17.389Z,35.13
2018-02-08T13:02:45.754Z,36.47
2018-02-08T13:05:14.096Z,37.83
2018-02-08T13:07:42.414Z,39.27
2018-02-08T13:10:10.816Z,39.90
2018-02-08T13:12:40.025Z,39.07
2018-02-08T13:15:08.418Z,40.70
2018-02-08T13:17:36.963Z,37.30
2018-02-08T13:20:05.402Z,38.50
2018-02-08T13:22:33.883Z,40.40
2018-02-08T13:25:02.246Z,38.30
2018-02-08T13:27:30.675Z,37.97
2018-02-08T13:29:59.003Z,40.67
2018-02-08T13:32:27.401Z,41.67
2018-02-08T13:34:55.822Z,43.00
2018-02-08T13:37:24.990Z,41.60
2018-02-08T13:39:53.475Z,40.70
2018-02-08T13:42:22.185Z,38.27
2018-02-08T13:44:51.410Z,38.97
2018-02-08T13:50:42.978Z,40.90
2018-02-08T13:56:31.734Z,40.13
2018-02-08T14:02:06.839Z,40.17
2018-02-08T14:04:35.158Z,41.97
2018-02-08T14:07:03.494Z,42.37
2018-02-08T14:09:31.883Z,41.03
2018-02-08T14:12:00.968Z,42.87
2018-02-08T14:14:29.295Z,38.63
2018-02-08T14:16:57.609Z,40.60
2018-02-08T14:19:25.941Z,40.80
2018-02-08T14:21:54.291Z,41.17
2018-02-08T14:24:23.522Z,41.80
2018-02-08T14:26:52.001Z,38.50
2018-02-08T14:29:20.412Z,41.20
2018-02-08T14:31:48.862Z,40.53
2018-02-08T14:34:17.342Z,40.00
2018-02-08T14:36:45.802Z,37.37
2018-02-08T14:39:15.036Z,40.07
2018-02-08T14:41:43.465Z,36.40
2018-02-08T14:44:12.713Z,39.30
2018-02-08T14:46:41.168Z,41.30
2018-02-08T14:49:09.595Z,39.50
2018-02-08T14:51:38.727Z,39.43
2018-02-08T14:54:07.825Z,40.83
2018-02-08T14:56:36.923Z,41.60
2018-02-08T14:59:06.046Z,41.57
2018-02-08T15:01:34.435Z,38.23
2018-02-08T15:04:02.779Z,38.50
2018-02-08T15:06:31.225Z,40.27
2018-02-08T15:08:59.589Z,38.17
2018-02-08T15:11:28.008Z,39.67
2018-02-08T15:13:57.227Z,40.00
2018-02-08T15:16:25.557Z,39.63
2018-02-08T15:18:54.063Z,38.47
2018-02-08T15:21:23.167Z,43.13
2018-02-08T15:23:51.656Z,40.93
2018-02-08T15:26:19.965Z,40.97
2018-02-08T15:28:48.426Z,39.03
2018-02-08T15:31:16.828Z,40.47
2018-02-08T15:33:45.284Z,40.90
2018-02-08T15:36:13.716Z,40.33
2018-02-08T15:38:42.159Z,38.57
2018-02-08T15:41:10.597Z,40.33
2018-02-08T15:43:39.792Z,39.80
2018-02-08T15:46:08.247Z,39.37
2018-02-08T15:48:37.458Z,40.27
2018-02-08T15:51:06.596Z,36.08
2018-02-08T15:53:34.992Z,39.42
2018-02-08T15:56:03.379Z,40.40
2018-02-08T15:58:32.593Z,46.72
2018-02-08T16:01:00.942Z,44.13
2018-02-08T16:03:29.297Z,47.47
2018-02-08T16:05:57.661Z,44.25
2018-02-08T16:08:26.754Z,46.60
2018-02-08T16:10:55.945Z,47.38
2018-02-08T16:13:25.091Z,45.47
2018-02-08T16:15:53.575Z,48.30
2018-02-08T16:18:21.947Z,47.95
2018-02-08T16:20:50.315Z,47.47
2018-02-08T16:23:18.660Z,46.70
2018-02-08T16:25:47.802Z,48.20
2018-02-08T16:28:16.176Z,47.13
2018-02-08T16:30:44.574Z,48.63
2018-02-08T16:33:12.896Z,49.72
2018-02-08T16:35:41.361Z,52.08
2018-02-08T16:38:09.708Z,48.95
2018-02-08T16:40:38.045Z,48.70
2018-02-08T16:43:06.429Z,48.97
2018-02-08T16:45:34.790Z,49.78
2018-02-08T16:48:03.950Z,51.72
2018-02-08T16:50:32.354Z,48.58
2018-02-08T16:53:01.494Z,45.47
2018-02-08T16:55:29.795Z,49.17
2018-02-08T16:57:58.116Z,55.35
2018-02-08T17:00:26.478Z,51.65
2018-02-08T17:02:55.652Z,49.05
2018-02-08T17:05:23.987Z,47.85
2018-02-08T17:07:52.365Z,51.55
2018-02-08T17:10:20.625Z,52.42
2018-02-08T17:12:48.897Z,54.22
2018-02-08T17:15:17.160Z,52.15
2018-02-08T17:17:46.196Z,48.67
2018-02-08T17:20:14.453Z,45.55
2018-02-08T17:22:42.728Z,51.03
2018-02-08T17:25:10.982Z,51.17
2018-02-08T17:27:40.023Z,50.63
2018-02-08T17:30:08.282Z,48.08
2018-02-08T17:32:36.586Z,51.63
2018-02-08T17:35:04.846Z,49.75
2018-02-08T17:37:33.112Z,54.55
2018-02-08T17:40:01.379Z,52.05
2018-02-08T17:42:29.638Z,50.85
2018-02-08T17:44:58.673Z,53.85
2018-02-08T17:47:26.951Z,55.55
2018-02-08T17:49:55.215Z,52.60
2018-02-08T17:52:23.469Z,53.90
2018-02-08T17:54:51.741Z,50.95
2018-02-08T17:57:20.009Z,50.80
2018-02-08T17:59:48.278Z,50.42
2018-02-08T18:02:17.303Z,58.65
2018-02-08T18:04:45.566Z,56.72
2018-02-08T18:07:13.830Z,57.25
2018-02-08T18:09:42.860Z,50.95
2018-02-08T18:12:11.120Z,51.60
2018-02-08T18:14:39.391Z,52.92
2018-02-08T18:17:07.650Z,47.92
2018-02-08T18:19:36.682Z,54.17
2018-02-08T18:22:04.948Z,54.83
2018-02-08T18:24:33.215Z,62.97
2018-02-08T18:27:01.479Z,57.30
2018-02-08T18:29:29.761Z,60.65
2018-02-08T18:31:58.044Z,56.00
2018-02-08T18:34:26.312Z,53.97
2018-02-08T18:36:54.573Z,53.15
2018-02-08T18:39:23.600Z,57.83
2018-02-08T18:41:51.865Z,59.35
2018-02-08T18:44:20.137Z,53.83
2018-02-08T18:46:48.406Z,50.47
2018-02-08T18:49:16.670Z,50.85
2018-02-08T18:51:45.706Z,52.53
2018-02-08T18:54:14.741Z,51.28
2018-02-08T18:56:43.773Z,54.55
2018-02-08T18:59:12.046Z,57.70
2018-02-08T19:01:40.305Z,52.53
2018-02-08T19:04:08.577Z,53.03
2018-02-08T19:06:37.610Z,53.97
2018-02-08T19:09:05.872Z,48.70
2018-02-08T19:11:34.149Z,49.22
2018-02-08T19:14:02.411Z,51.58
2018-02-08T19:16:30.674Z,51.55
2018-02-08T19:18:58.934Z,50.95
2018-02-08T19:21:27.977Z,50.67
2018-02-08T19:23:56.230Z,64.07
2018-02-08T19:26:24.505Z,54.72
2018-02-08T19:28:52.762Z,53.95
2018-02-08T19:31:21.796Z,50.25
2018-02-08T19:33:50.054Z,50.30
2018-02-08T19:36:18.314Z,50.80
2018-02-08T19:38:47.330Z,49.47
2018-02-08T19:41:15.606Z,54.08
2018-02-08T19:43:43.871Z,53.03
2018-02-08T19:46:12.218Z,52.42
2018-02-08T19:48:40.471Z,54.08
2018-02-08T19:51:08.729Z,48.55
2018-02-08T19:53:37.035Z,52.22
2018-02-08T19:56:05.269Z,55.53
2018-02-08T19:58:33.521Z,53.20
2018-02-08T20:01:01.782Z,51.80
2018-02-08T20:03:30.803Z,50.78
2018-02-08T20:05:59.069Z,49.88
2018-02-08T20:08:27.339Z,49.97
2018-02-08T20:10:56.367Z,51.83
2018-02-08T20:13:24.630Z,51.13
2018-02-08T20:15:52.901Z,48.05
2018-02-08T20:18:21.154Z,50.12
2018-02-08T20:20:50.175Z,50.20
2018-02-08T20:23:18.439Z,50.70
2018-02-08T20:25:46.698Z,50.30
2018-02-08T20:28:15.735Z,46.53
2018-02-08T20:30:49.317Z,50.20
2018-02-08T20:33:17.583Z,52.38
2018-02-08T20:35:45.841Z,50.15
2018-02-08T20:38:14.870Z,54.00
2018-02-08T20:40:43.128Z,53.87
2018-02-08T20:43:16.888Z,50.65
2018-02-08T20:45:45.156Z,53.08
2018-02-08T20:48:13.422Z,51.33
2018-02-08T20:50:41.677Z,45.12
2018-02-08T20:53:09.947Z,49.27
2018-02-08T20:55:38.210Z,46.63
2018-02-08T20:58:06.483Z,51.88
2018-02-08T21:00:34.754Z,49.72
2018-02-08T21:03:03.044Z,50.00
2018-02-08T21:05:31.302Z,51.45
2018-02-08T21:08:00.336Z,51.95
2018-02-08T21:10:28.590Z,51.35
2018-02-08T21:12:56.860Z,54.45
2018-02-08T21:15:25.139Z,54.38
2018-02-08T21:17:53.406Z,51.45
2018-02-08T21:20:21.675Z,49.40
2018-02-08T21:22:50.714Z,47.53
2018-02-08T21:25:18.975Z,52.60
2018-02-08T21:27:47.235Z,57.25
2018-02-08T21:30:15.696Z,56.58
2018-02-08T21:32:44.019Z,57.35
2018-02-08T21:35:12.267Z,55.35
2018-02-08T21:37:40.533Z,57.20
2018-02-08T21:40:08.789Z,51.92
2018-02-08T21:42:37.818Z,51.50
2018-02-08T21:45:06.071Z,55.67
2018-02-08T21:47:34.333Z,53.90
2018-02-08T21:50:03.360Z,54.08
2018-02-08T21:52:31.627Z,52.25
2018-02-08T21:54:59.898Z,55.80
2018-02-08T21:57:28.166Z,60.15
2018-02-08T21:59:56.432Z,53.25
2018-02-08T22:02:25.466Z,53.80
2018-02-08T22:04:53.741Z,57.62
2018-02-08T22:07:21.988Z,54.42
2018-02-08T22:09:50.245Z,63.40
2018-02-08T22:12:19.273Z,68.65
2018-02-08T22:14:47.528Z,69.68
2018-02-08T22:17:16.566Z,67.10
2018-02-08T22:19:45.587Z,68.25
2018-02-08T22:22:13.848Z,65.57
2018-02-08T22:24:42.102Z,69.90
2018-02-08T22:27:10.415Z,73.82
2018-02-08T22:29:38.661Z,65.50
2018-02-08T22:32:06.923Z,68.85
2018-02-08T22:34:35.189Z,65.70
2018-02-08T22:37:03.450Z,65.60
2018-02-08T22:39:31.717Z,68.82
2018-02-08T22:42:00.745Z,68.32
2018-02-08T22:44:29.001Z,58.60
2018-02-08T22:46:57.257Z,68.28
2018-02-08T22:49:26.290Z,72.37
2018-02-08T22:51:54.547Z,70.53
2018-02-08T22:54:22.809Z,68.15
2018-02-08T22:56:51.826Z,67.78
2018-02-08T22:59:20.093Z,67.40
2018-02-08T23:01:48.366Z,71.87
2018-02-08T23:04:16.634Z,66.53
2018-02-08T23:06:44.902Z,67.85
2018-02-08T23:09:13.947Z,66.90
2018-02-08T23:11:42.200Z,71.82
2018-02-08T23:14:10.461Z,72.37
2018-02-08T23:16:38.719Z,66.97
2018-02-08T23:19:07.738Z,61.00
2018-02-08T23:21:35.994Z,66.07
2018-02-08T23:24:04.258Z,69.93
2018-02-08T23:26:33.277Z,69.47
2018-02-08T23:29:01.540Z,73.90
2018-02-08T23:31:29.797Z,76.85
2018-02-08T23:33:58.054Z,69.32
2018-02-08T23:36:26.305Z,77.95
2018-02-08T23:38:54.576Z,73.20
2018-02-08T23:41:22.843Z,71.03
2018-02-08T23:43:51.106Z,69.85
2018-02-08T23:46:19.357Z,70.50
2018-02-08T23:48:48.382Z,78.07
2018-02-08T23:51:16.633Z,73.53
2018-02-08T23:53:45.652Z,74.03
2018-02-08T23:56:13.913Z,82.85
2018-02-08T23:58:42.171Z,78.10
